Pagrindinis puslapis
METAR-TAF:

METAR-TAF

Oro uostai :

Haifa, Izraelis

platuma: 32-48N, ilguma: 035-02E, Aukštis: 8 m

Dabartinis oras

Ataskaita buvo paskelbta 32 minutes, ne 17:50 UTC
Vėjas 6 kt iš Vakarų/Šiaurės Vakarų
Temperatūra 27°C
Drėgmė 62%
Slėgis 1010 hPa
Matomumas 10 km arba daugiau
Mažai debesys ne aukštis 3000 ft

METAR: LLHA 151750Z 29006KT 9999 FEW030 27/19 Q1010

Laikas: 21:22 (18:22 UTC)

Prognozė

Ataskaita buvo paskelbta 1 valandą ir 18 minutes, ne 17:04 UTC
Prognozė galioja nuo 15 metu 18 UTC su 16 metu 18 UTC
Vėjas 5 kt iš Vakarų
Matomumas 10 km arba daugiau
Išsisklaidę debesys ne aukštis 3000 ft
Tikimybė 40%
nuo 16 metu 01 UTC su 16 metu 08 UTC
Vėjas 7 kt iš Pietų
Su prošvaistėmis ne aukštis 2500 ft
lietus
Tapsmas
nuo 16 metu 12 UTC su 16 metu 14 UTC
Vėjas 7 kt iš Šiaurės Vakarų

TAF: LLHA 151704Z 1518/1618 28005KT 9999 SCT030 PROB40 1601/1608 17007KT -RA BKN025 BECMG 1612/1614 32007KT TX29/1611Z TN24/1604Z

Orai ataskaitas ir orų prognozės (METAR, TAF).

turimą stotys yra geltonos ir raudonos taškus žemėlapyje.

Perkelti pele per norėdami pamatyti stoties vardą.

Tada spustelėkite, norėdami matyti oro stebėjimo ir prognozės.

Norėdami pakeisti žemėlapį: spustelėkite ant žalios mygtukų su juodo kryžiaus žemyn,; žalią mygtuką su brūkšneliu, jei norite nutolinti; arba žalių rodyklių gretimoms žemėlapius.


METAR-TAF: